Waddell, Arizona
Current Conditions -  °F | °C
As of 8:58 AM on Wednesday 26 Nov 2014 (Local Time) from KLUF Reporting Station
Smoke Smoke  
Wind Chill: 10°   Ceiling: Unl
Heat Index: 10°   Visibility: 7mi
Dew Point: -8°   Wind: 1mph
Humidity: 29%   Direction: 20°NNE
Pressure: 30.32"   Gusts: NA
Location:  33.57°N, 112.43°W
Report Text: KLUF 261558Z 02001KT 7SM FU FEW001 10/M08 A3032 RMK AO2A VIS S-SW 2 1/2 TWR VIS 1/2 SLP268 T01001076 $
Loading
Personal Weather Stations






























Interactive Weather Map New forecast layout! Learn more

10-Day Weather Forecast

Advertisements
Track Severe Weather on mobile